createdAt,value
2022-08-09T00:01:42.313Z,85.99
2022-08-09T00:06:49.478Z,86.1
2022-08-09T00:11:58.024Z,86.21
2022-08-09T00:17:11.280Z,86.64001
2022-08-09T00:22:19.290Z,87.07
2022-08-09T00:27:33.974Z,87.47001
2022-08-09T00:32:41.160Z,87.40001
2022-08-09T00:37:48.984Z,87.7
2022-08-09T00:42:56.723Z,87.33001
2022-08-09T00:48:04.088Z,86.82
2022-08-09T00:53:11.256Z,86.75
2022-08-09T00:58:19.100Z,87.15
2022-08-09T01:03:26.619Z,86.99
2022-08-09T01:08:33.499Z,86.51999
2022-08-09T01:13:40.725Z,86.86
2022-08-09T01:18:48.521Z,86.64001
2022-08-09T01:23:56.220Z,87.55
2022-08-09T01:29:12.544Z,87.3
2022-08-09T01:34:19.733Z,87.22
2022-08-09T01:39:27.647Z,87.87001
2022-08-09T01:44:34.804Z,87.86
2022-08-09T01:49:42.569Z,87.58
2022-08-09T01:54:49.764Z,88.16001
2022-08-09T02:00:05.275Z,88.05
2022-08-09T02:05:11.899Z,88.1
2022-08-09T02:10:18.878Z,88.62
2022-08-09T02:15:26.530Z,88.23001
2022-08-09T02:20:33.491Z,88.42
2022-08-09T02:25:41.314Z,88.12
2022-08-09T02:30:48.554Z,87.96
2022-08-09T02:35:56.419Z,87.06
2022-08-09T02:41:04.289Z,86.90001
2022-08-09T02:46:12.474Z,87.42
2022-08-09T02:51:27.582Z,88.14
2022-08-09T02:56:35.687Z,88.76
2022-08-09T03:01:43.686Z,88.32
2022-08-09T03:06:51.127Z,88.38
2022-08-09T03:12:04.081Z,88.31
2022-08-09T03:17:11.936Z,88.77
2022-08-09T03:22:20.689Z,89.19001
2022-08-09T03:28:08.533Z,89.23
2022-08-09T03:33:16.669Z,88.18
2022-08-09T03:38:24.598Z,88.7
2022-08-09T03:43:39.099Z,88.63
2022-08-09T03:48:46.673Z,88.14
2022-08-09T03:53:53.854Z,88.72001
2022-08-09T03:59:02.434Z,88.48001
2022-08-09T04:04:10.964Z,88.77
2022-08-09T04:09:19.050Z,88.85
2022-08-09T04:14:26.935Z,87.56
2022-08-09T04:19:34.872Z,85.78
2022-08-09T04:24:42.504Z,84.03
2022-08-09T04:29:49.899Z,82.76
2022-08-09T04:34:58.140Z,81.68
2022-08-09T04:40:05.363Z,80.80001
2022-08-09T04:45:13.111Z,78.79
2022-08-09T04:50:21.403Z,75.61
2022-08-09T04:55:29.427Z,76.02
2022-08-09T05:00:38.479Z,73.2
2022-08-09T05:05:46.730Z,70.99
2022-08-09T05:10:53.659Z,70.33
2022-08-09T05:16:02.003Z,70.8
2022-08-09T05:21:10.128Z,71.58
2022-08-09T05:26:18.975Z,70.68
2022-08-09T05:31:26.929Z,71.63
2022-08-09T05:36:34.132Z,71.56
2022-08-09T05:41:41.337Z,70.64
2022-08-09T05:46:49.173Z,70.3
2022-08-09T05:51:58.055Z,69.63
2022-08-09T05:57:05.669Z,69.17
2022-08-09T06:02:14.079Z,70.12001
2022-08-09T06:07:21.945Z,68.87001
2022-08-09T06:12:31.052Z,69.08
2022-08-09T06:17:38.810Z,70.15
2022-08-09T06:22:47.192Z,71.06
2022-08-09T06:27:54.458Z,68.42
2022-08-09T06:33:03.290Z,67.64
2022-08-09T06:38:10.935Z,66.64
2022-08-09T06:43:17.978Z,67.04
2022-08-09T06:48:25.178Z,66.01
2022-08-09T06:53:32.647Z,65.99
2022-08-09T06:58:39.890Z,63.83
2022-08-09T07:03:47.412Z,63.37
2022-08-09T07:08:54.911Z,60.88
2022-08-09T07:14:02.537Z,60.98
2022-08-09T07:19:09.031Z,59.94
2022-08-09T07:24:16.853Z,57.42
2022-08-09T07:29:24.406Z,54.14
2022-08-09T07:34:31.034Z,48.34
2022-08-09T07:39:39.849Z,45.38
2022-08-09T07:44:48.729Z,43.56
2022-08-09T07:49:56.057Z,40.25
2022-08-09T07:55:03.349Z,40.01
2022-08-09T08:00:11.735Z,36.77
2022-08-09T08:05:19.622Z,36.53
2022-08-09T08:10:32.683Z,38.96
2022-08-09T08:15:40.304Z,35.9
2022-08-09T08:20:47.774Z,34.69
2022-08-09T08:25:55.448Z,36.37
2022-08-09T08:31:02.635Z,32.93
2022-08-09T08:36:10.462Z,31.98
2022-08-09T08:41:18.025Z,33.34
2022-08-09T08:46:26.014Z,37.14
2022-08-09T08:51:34.617Z,38.56
2022-08-09T08:56:41.182Z,41.18
2022-08-09T09:01:49.527Z,39.13
2022-08-09T09:06:58.983Z,41.3
2022-08-09T09:12:05.651Z,43.62
2022-08-09T09:17:12.539Z,43.92
2022-08-09T09:22:20.642Z,40.74
2022-08-09T09:27:27.575Z,42.01
2022-08-09T09:32:36.474Z,36.49
2022-08-09T09:37:43.230Z,37.36
2022-08-09T09:42:51.189Z,34.61
2022-08-09T09:47:58.808Z,37.44
2022-08-09T09:53:07.251Z,36.88
2022-08-09T09:58:14.164Z,37.4
2022-08-09T10:03:21.217Z,37.48
2022-08-09T10:08:29.515Z,35.49
2022-08-09T10:13:36.854Z,35.42
2022-08-09T10:18:44.698Z,33.82
2022-08-09T10:23:52.921Z,30.15
2022-08-09T10:29:00.523Z,30.89
2022-08-09T10:34:06.937Z,31.06
2022-08-09T10:39:14.949Z,31.2
2022-08-09T10:44:23.258Z,30.18
2022-08-09T10:49:31.050Z,28.62
2022-08-09T10:54:37.018Z,30.84
2022-08-09T10:59:44.895Z,30.98
2022-08-09T11:04:51.519Z,28.54
2022-08-09T11:09:59.588Z,29.26
2022-08-09T11:15:06.567Z,28.64
2022-08-09T11:20:13.631Z,26.26
2022-08-09T11:25:21.239Z,26.23
2022-08-09T11:30:33.857Z,27.44
2022-08-09T11:35:40.034Z,30.88
2022-08-09T11:40:46.942Z,32.84
2022-08-09T11:45:54.179Z,29.59
2022-08-09T11:51:01.977Z,26.86
2022-08-09T11:56:09.965Z,30.38
2022-08-09T12:01:17.526Z,32.64
2022-08-09T12:06:25.477Z,34.31
2022-08-09T12:11:34.066Z,33.13
2022-08-09T12:16:41.052Z,33.71
2022-08-09T12:21:48.552Z,34.61
2022-08-09T12:26:55.585Z,33.75
2022-08-09T12:32:03.418Z,34.54
2022-08-09T12:37:10.620Z,36.17
2022-08-09T12:42:18.766Z,32.91
2022-08-09T12:47:27.690Z,34.39
2022-08-09T12:52:34.941Z,35.72
2022-08-09T12:57:42.090Z,35.97
2022-08-09T13:02:49.213Z,34.62
2022-08-09T13:07:57.524Z,35.32
2022-08-09T13:13:04.816Z,36.42
2022-08-09T13:18:13.071Z,37.16
2022-08-09T13:23:21.559Z,34.91
2022-08-09T13:28:28.378Z,34.25
2022-08-09T13:33:35.586Z,34.42
2022-08-09T13:38:43.633Z,34.2
2022-08-09T13:43:52.037Z,33.88
2022-08-09T13:48:58.679Z,34.1
2022-08-09T13:54:07.582Z,33.26
2022-08-09T13:59:15.618Z,32.8
2022-08-09T14:04:22.626Z,34.42
2022-08-09T14:09:31.118Z,33.25
2022-08-09T14:14:40.580Z,34.05
2022-08-09T14:19:48.055Z,32.68
2022-08-09T14:24:56.470Z,33.82
2022-08-09T14:30:04.137Z,34.88
2022-08-09T14:35:12.725Z,36.28
2022-08-09T14:40:19.496Z,36.64
2022-08-09T14:45:26.358Z,35.31
2022-08-09T14:50:34.964Z,36.08
2022-08-09T14:55:41.825Z,36.85
2022-08-09T15:00:49.025Z,36.46
2022-08-09T15:05:57.006Z,37.09
2022-08-09T15:11:05.195Z,38.06
2022-08-09T15:16:20.178Z,38.27
2022-08-09T15:21:29.546Z,37.31
2022-08-09T15:26:38.154Z,34.3
2022-08-09T15:31:46.565Z,32.76
2022-08-09T15:36:54.959Z,33.63
2022-08-09T15:42:01.474Z,35.26
2022-08-09T15:47:09.142Z,36.67
2022-08-09T15:52:17.374Z,37.88
2022-08-09T15:57:25.337Z,36.54
2022-08-09T16:02:32.701Z,36.79
2022-08-09T16:07:40.381Z,37.84
2022-08-09T16:12:48.442Z,38.43
2022-08-09T16:17:56.632Z,39.96
2022-08-09T16:23:04.474Z,40.43
2022-08-09T16:28:11.737Z,42.7
2022-08-09T16:33:19.306Z,42.16
2022-08-09T16:38:25.994Z,43.64
2022-08-09T16:43:32.698Z,43.58
2022-08-09T16:48:39.633Z,44.16
2022-08-09T16:53:48.043Z,43.83
2022-08-09T16:58:55.216Z,43.44
2022-08-09T17:04:02.382Z,44.0
2022-08-09T17:09:08.697Z,43.83
2022-08-09T17:14:16.647Z,44.38
2022-08-09T17:19:23.990Z,44.76
2022-08-09T17:24:30.300Z,45.02
2022-08-09T17:29:39.285Z,45.72
2022-08-09T17:34:47.431Z,45.97
2022-08-09T17:39:55.819Z,45.24
2022-08-09T17:45:03.795Z,46.15
2022-08-09T17:50:11.436Z,46.32
2022-08-09T17:55:20.055Z,46.52
2022-08-09T18:00:27.195Z,46.94
2022-08-09T18:05:35.435Z,47.1
2022-08-09T18:10:43.799Z,47.66
2022-08-09T18:15:51.255Z,47.91
2022-08-09T18:20:58.815Z,47.93
2022-08-09T18:26:06.649Z,48.59
2022-08-09T18:31:14.181Z,48.89
2022-08-09T18:36:23.128Z,49.65
2022-08-09T18:41:31.010Z,50.18
2022-08-09T18:46:37.692Z,51.19
2022-08-09T18:51:44.524Z,51.38
2022-08-09T18:56:51.765Z,52.22
2022-08-09T19:01:59.283Z,52.8
2022-08-09T19:07:07.671Z,54.25
2022-08-09T19:12:15.116Z,53.76
2022-08-09T19:17:23.283Z,55.37
2022-08-09T19:22:31.742Z,56.01
2022-08-09T19:27:39.200Z,57.26
2022-08-09T19:32:47.943Z,57.94
2022-08-09T19:37:56.017Z,58.1
2022-08-09T19:43:03.264Z,58.0
2022-08-09T19:48:10.864Z,59.3
2022-08-09T19:53:17.893Z,59.04
2022-08-09T19:58:25.015Z,58.58
2022-08-09T20:03:32.153Z,58.97
2022-08-09T20:08:39.949Z,59.37
2022-08-09T20:13:47.858Z,60.16
2022-08-09T20:18:54.935Z,61.14
2022-08-09T20:24:03.417Z,60.35
2022-08-09T20:29:09.970Z,60.81
2022-08-09T20:34:17.808Z,60.3
2022-08-09T20:39:26.169Z,60.04
2022-08-09T20:44:35.058Z,60.8
2022-08-09T20:49:42.294Z,62.01
2022-08-09T20:54:50.321Z,62.15
2022-08-09T21:00:00.200Z,63.44
2022-08-09T21:05:09.214Z,63.84
2022-08-09T21:10:17.679Z,63.9
2022-08-09T21:15:26.162Z,63.52
2022-08-09T21:20:33.485Z,63.66
2022-08-09T21:25:41.364Z,64.58
2022-08-09T21:30:49.502Z,65.24
2022-08-09T21:35:58.299Z,66.19
2022-08-09T21:41:06.158Z,66.48
2022-08-09T21:46:13.335Z,67.1
2022-08-09T21:51:21.110Z,66.94
2022-08-09T21:56:31.488Z,66.97
2022-08-09T22:01:41.169Z,67.45
2022-08-09T22:06:48.563Z,67.74
2022-08-09T22:11:56.598Z,68.39
2022-08-09T22:17:05.291Z,68.63
2022-08-09T22:22:13.648Z,69.08
2022-08-09T22:27:22.001Z,69.71
2022-08-09T22:32:30.357Z,69.89
2022-08-09T22:37:38.206Z,70.62
2022-08-09T22:42:45.847Z,71.11
2022-08-09T22:47:54.973Z,71.16001
2022-08-09T22:53:03.363Z,71.9
2022-08-09T22:58:11.726Z,72.62001
2022-08-09T23:03:21.594Z,73.33
2022-08-09T23:08:30.095Z,74.04
2022-08-09T23:13:38.469Z,74.04
2022-08-09T23:18:46.586Z,74.48
2022-08-09T23:23:53.821Z,74.42
2022-08-09T23:29:03.442Z,74.15
2022-08-09T23:34:10.780Z,74.3
2022-08-09T23:39:19.791Z,74.64
2022-08-09T23:44:27.890Z,75.1
2022-08-09T23:49:34.934Z,75.34
2022-08-09T23:54:42.728Z,75.75
2022-08-09T23:59:50.921Z,75.9
